sensor_id;sensor_type;location;lat;lon;timestamp;temperature;humidity
27128;DHT22;14660;49.008;8.390;2022-11-20T00:01:25;7.20;99.90
27128;DHT22;14660;49.008;8.390;2022-11-20T00:03:52;7.20;99.90
27128;DHT22;14660;49.008;8.390;2022-11-20T00:06:23;7.10;99.90
27128;DHT22;14660;49.008;8.390;2022-11-20T00:08:54;7.10;99.90
27128;DHT22;14660;49.008;8.390;2022-11-20T00:11:26;7.00;99.90
27128;DHT22;14660;49.008;8.390;2022-11-20T00:13:56;7.00;99.90
27128;DHT22;14660;49.008;8.390;2022-11-20T00:16:25;7.20;99.90
27128;DHT22;14660;49.008;8.390;2022-11-20T00:18:53;7.30;99.90
27128;DHT22;14660;49.008;8.390;2022-11-20T00:21:23;7.30;99.90
27128;DHT22;14660;49.008;8.390;2022-11-20T00:23:53;7.30;99.90
27128;DHT22;14660;49.008;8.390;2022-11-20T00:26:24;7.30;99.90
27128;DHT22;14660;49.008;8.390;2022-11-20T00:29:01;7.30;99.90
27128;DHT22;14660;49.008;8.390;2022-11-20T00:31:29;7.30;99.90
27128;DHT22;14660;49.008;8.390;2022-11-20T00:33:57;7.20;99.90
27128;DHT22;14660;49.008;8.390;2022-11-20T00:36:26;7.20;99.90
27128;DHT22;14660;49.008;8.390;2022-11-20T00:38:58;7.40;99.90
27128;DHT22;14660;49.008;8.390;2022-11-20T00:41:28;7.30;99.90
27128;DHT22;14660;49.008;8.390;2022-11-20T00:43:55;7.40;99.90
27128;DHT22;14660;49.008;8.390;2022-11-20T00:46:25;7.30;99.90
27128;DHT22;14660;49.008;8.390;2022-11-20T00:48:53;7.30;99.90
27128;DHT22;14660;49.008;8.390;2022-11-20T00:51:24;7.30;99.90
27128;DHT22;14660;49.008;8.390;2022-11-20T00:53:52;7.30;99.90
27128;DHT22;14660;49.008;8.390;2022-11-20T00:56:19;7.30;99.90
27128;DHT22;14660;49.008;8.390;2022-11-20T00:58:48;7.40;99.90
27128;DHT22;14660;49.008;8.390;2022-11-20T01:01:33;7.40;99.90
27128;DHT22;14660;49.008;8.390;2022-11-20T01:04:00;7.40;99.90
27128;DHT22;14660;49.008;8.390;2022-11-20T01:06:46;7.30;99.90
27128;DHT22;14660;49.008;8.390;2022-11-20T01:09:13;7.40;99.90
27128;DHT22;14660;49.008;8.390;2022-11-20T01:11:43;7.30;99.90
27128;DHT22;14660;49.008;8.390;2022-11-20T01:14:15;7.40;99.90
27128;DHT22;14660;49.008;8.390;2022-11-20T01:16:48;7.50;99.90
27128;DHT22;14660;49.008;8.390;2022-11-20T01:19:18;7.50;99.90
27128;DHT22;14660;49.008;8.390;2022-11-20T01:21:49;7.60;99.90
27128;DHT22;14660;49.008;8.390;2022-11-20T01:24:24;7.50;99.90
27128;DHT22;14660;49.008;8.390;2022-11-20T01:26:58;7.60;99.90
27128;DHT22;14660;49.008;8.390;2022-11-20T01:29:25;7.60;99.90
27128;DHT22;14660;49.008;8.390;2022-11-20T01:31:53;7.70;99.90
27128;DHT22;14660;49.008;8.390;2022-11-20T01:34:29;7.70;99.90
27128;DHT22;14660;49.008;8.390;2022-11-20T01:37:05;7.60;99.90
27128;DHT22;14660;49.008;8.390;2022-11-20T01:39:32;7.60;99.90
27128;DHT22;14660;49.008;8.390;2022-11-20T01:41:58;7.70;99.90
27128;DHT22;14660;49.008;8.390;2022-11-20T01:45:42;7.80;99.90
27128;DHT22;14660;49.008;8.390;2022-11-20T01:47:49;7.70;99.90
27128;DHT22;14660;49.008;8.390;2022-11-20T01:50:25;7.80;99.90
27128;DHT22;14660;49.008;8.390;2022-11-20T01:53:13;7.80;99.90
27128;DHT22;14660;49.008;8.390;2022-11-20T01:55:48;7.80;99.90
27128;DHT22;14660;49.008;8.390;2022-11-20T01:58:18;7.80;99.90
27128;DHT22;14660;49.008;8.390;2022-11-20T02:00:47;7.80;99.90
27128;DHT22;14660;49.008;8.390;2022-11-20T02:03:17;7.80;99.90
27128;DHT22;14660;49.008;8.390;2022-11-20T02:08:48;7.90;99.90
27128;DHT22;14660;49.008;8.390;2022-11-20T02:11:16;7.90;99.90
27128;DHT22;14660;49.008;8.390;2022-11-20T02:13:42;8.10;99.90
27128;DHT22;14660;49.008;8.390;2022-11-20T02:16:33;8.10;99.90
27128;DHT22;14660;49.008;8.390;2022-11-20T02:19:02;8.10;99.90
27128;DHT22;14660;49.008;8.390;2022-11-20T02:24:36;8.20;99.90
27128;DHT22;14660;49.008;8.390;2022-11-20T02:27:22;8.30;99.90
27128;DHT22;14660;49.008;8.390;2022-11-20T02:29:58;8.30;99.90
27128;DHT22;14660;49.008;8.390;2022-11-20T02:32:29;8.30;99.90
27128;DHT22;14660;49.008;8.390;2022-11-20T02:34:57;8.30;99.90
27128;DHT22;14660;49.008;8.390;2022-11-20T02:37:30;8.20;99.90
27128;DHT22;14660;49.008;8.390;2022-11-20T02:40:00;8.30;99.90
27128;DHT22;14660;49.008;8.390;2022-11-20T02:42:27;8.30;99.90
27128;DHT22;14660;49.008;8.390;2022-11-20T02:44:55;8.40;99.90
27128;DHT22;14660;49.008;8.390;2022-11-20T02:47:22;8.40;99.90
27128;DHT22;14660;49.008;8.390;2022-11-20T02:49:49;8.50;99.90
27128;DHT22;14660;49.008;8.390;2022-11-20T02:52:15;8.50;99.90
27128;DHT22;14660;49.008;8.390;2022-11-20T02:54:42;8.50;99.90
27128;DHT22;14660;49.008;8.390;2022-11-20T02:57:09;8.50;99.90
27128;DHT22;14660;49.008;8.390;2022-11-20T02:59:36;8.50;99.90
27128;DHT22;14660;49.008;8.390;2022-11-20T03:02:02;8.50;99.90
27128;DHT22;14660;49.008;8.390;2022-11-20T03:04:29;8.40;99.90
27128;DHT22;14660;49.008;8.390;2022-11-20T03:06:56;8.50;99.90
27128;DHT22;14660;49.008;8.390;2022-11-20T03:09:23;8.50;99.90
27128;DHT22;14660;49.008;8.390;2022-11-20T03:11:50;8.50;99.90
27128;DHT22;14660;49.008;8.390;2022-11-20T03:14:17;8.50;99.90
27128;DHT22;14660;49.008;8.390;2022-11-20T03:16:44;8.50;99.90
27128;DHT22;14660;49.008;8.390;2022-11-20T03:19:12;8.50;99.90
27128;DHT22;14660;49.008;8.390;2022-11-20T03:21:39;8.50;99.90
27128;DHT22;14660;49.008;8.390;2022-11-20T03:24:06;8.50;99.90
27128;DHT22;14660;49.008;8.390;2022-11-20T03:26:33;8.50;99.90
27128;DHT22;14660;49.008;8.390;2022-11-20T03:29:04;8.50;99.90
27128;DHT22;14660;49.008;8.390;2022-11-20T03:31:39;8.50;99.90
27128;DHT22;14660;49.008;8.390;2022-11-20T03:34:09;8.60;99.90
27128;DHT22;14660;49.008;8.390;2022-11-20T03:36:38;8.60;99.90
27128;DHT22;14660;49.008;8.390;2022-11-20T03:39:05;8.60;99.90
27128;DHT22;14660;49.008;8.390;2022-11-20T03:41:39;8.60;99.90
27128;DHT22;14660;49.008;8.390;2022-11-20T03:44:09;8.60;99.90
27128;DHT22;14660;49.008;8.390;2022-11-20T03:46:36;8.60;99.90
27128;DHT22;14660;49.008;8.390;2022-11-20T03:49:04;8.60;99.90
27128;DHT22;14660;49.008;8.390;2022-11-20T03:51:35;8.60;99.90
27128;DHT22;14660;49.008;8.390;2022-11-20T03:54:04;8.60;99.90
27128;DHT22;14660;49.008;8.390;2022-11-20T03:56:34;8.60;99.90
27128;DHT22;14660;49.008;8.390;2022-11-20T03:59:02;8.50;99.90
27128;DHT22;14660;49.008;8.390;2022-11-20T04:01:32;8.60;99.90
27128;DHT22;14660;49.008;8.390;2022-11-20T04:04:00;8.60;99.90
27128;DHT22;14660;49.008;8.390;2022-11-20T04:06:33;8.50;99.90
27128;DHT22;14660;49.008;8.390;2022-11-20T04:09:04;8.60;99.90
27128;DHT22;14660;49.008;8.390;2022-11-20T04:11:33;8.60;99.90
27128;DHT22;14660;49.008;8.390;2022-11-20T04:14:03;8.70;99.90
27128;DHT22;14660;49.008;8.390;2022-11-20T04:16:33;8.70;99.90
27128;DHT22;14660;49.008;8.390;2022-11-20T04:19:01;8.70;99.90
27128;DHT22;14660;49.008;8.390;2022-11-20T04:21:29;8.70;99.90
27128;DHT22;14660;49.008;8.390;2022-11-20T04:23:57;8.70;99.90
27128;DHT22;14660;49.008;8.390;2022-11-20T04:26:28;8.60;99.90
27128;DHT22;14660;49.008;8.390;2022-11-20T04:28:56;8.70;99.90
27128;DHT22;14660;49.008;8.390;2022-11-20T04:31:28;8.60;99.90
27128;DHT22;14660;49.008;8.390;2022-11-20T04:33:55;8.60;99.90
27128;DHT22;14660;49.008;8.390;2022-11-20T04:36:26;8.60;99.90
27128;DHT22;14660;49.008;8.390;2022-11-20T04:39:02;8.60;99.90
27128;DHT22;14660;49.008;8.390;2022-11-20T04:41:31;8.60;99.90
27128;DHT22;14660;49.008;8.390;2022-11-20T04:44:00;8.70;99.90
27128;DHT22;14660;49.008;8.390;2022-11-20T04:46:38;8.70;99.90
27128;DHT22;14660;49.008;8.390;2022-11-20T04:49:06;8.70;99.90
27128;DHT22;14660;49.008;8.390;2022-11-20T04:51:32;8.70;99.90
27128;DHT22;14660;49.008;8.390;2022-11-20T04:53:59;8.70;99.90
27128;DHT22;14660;49.008;8.390;2022-11-20T04:56:25;8.70;99.90
27128;DHT22;14660;49.008;8.390;2022-11-20T04:58:52;8.70;99.90
27128;DHT22;14660;49.008;8.390;2022-11-20T05:01:21;8.70;99.90
27128;DHT22;14660;49.008;8.390;2022-11-20T05:03:49;8.70;99.90
27128;DHT22;14660;49.008;8.390;2022-11-20T05:06:17;8.80;99.90
27128;DHT22;14660;49.008;8.390;2022-11-20T05:08:46;8.80;99.90
27128;DHT22;14660;49.008;8.390;2022-11-20T05:11:16;8.70;99.90
27128;DHT22;14660;49.008;8.390;2022-11-20T05:13:43;8.80;99.90
27128;DHT22;14660;49.008;8.390;2022-11-20T05:16:12;8.70;99.90
27128;DHT22;14660;49.008;8.390;2022-11-20T05:18:40;8.70;99.90
27128;DHT22;14660;49.008;8.390;2022-11-20T05:21:12;8.70;99.90
27128;DHT22;14660;49.008;8.390;2022-11-20T05:23:41;8.70;99.90
27128;DHT22;14660;49.008;8.390;2022-11-20T05:26:13;8.70;99.90
27128;DHT22;14660;49.008;8.390;2022-11-20T05:28:40;8.60;99.90
27128;DHT22;14660;49.008;8.390;2022-11-20T05:31:24;8.60;99.90
27128;DHT22;14660;49.008;8.390;2022-11-20T05:33:51;8.60;99.90
27128;DHT22;14660;49.008;8.390;2022-11-20T05:36:18;8.70;99.90
27128;DHT22;14660;49.008;8.390;2022-11-20T05:38:46;8.70;99.90
27128;DHT22;14660;49.008;8.390;2022-11-20T05:41:18;8.70;99.90
27128;DHT22;14660;49.008;8.390;2022-11-20T05:43:49;8.70;99.90
27128;DHT22;14660;49.008;8.390;2022-11-20T05:46:18;8.70;99.90
27128;DHT22;14660;49.008;8.390;2022-11-20T05:48:46;8.60;99.90
27128;DHT22;14660;49.008;8.390;2022-11-20T05:51:14;8.60;99.90
27128;DHT22;14660;49.008;8.390;2022-11-20T05:53:42;8.60;99.90
27128;DHT22;14660;49.008;8.390;2022-11-20T05:56:15;8.50;99.90
27128;DHT22;14660;49.008;8.390;2022-11-20T05:58:46;8.50;99.90
27128;DHT22;14660;49.008;8.390;2022-11-20T06:01:18;8.60;99.90
27128;DHT22;14660;49.008;8.390;2022-11-20T06:03:46;8.70;99.90
27128;DHT22;14660;49.008;8.390;2022-11-20T06:06:15;8.60;99.90
27128;DHT22;14660;49.008;8.390;2022-11-20T06:08:43;8.60;99.90
27128;DHT22;14660;49.008;8.390;2022-11-20T06:11:12;8.70;99.90
27128;DHT22;14660;49.008;8.390;2022-11-20T06:13:39;8.70;99.90
27128;DHT22;14660;49.008;8.390;2022-11-20T06:16:07;8.70;99.90
27128;DHT22;14660;49.008;8.390;2022-11-20T06:18:34;8.70;99.90
27128;DHT22;14660;49.008;8.390;2022-11-20T06:21:03;8.70;99.90
27128;DHT22;14660;49.008;8.390;2022-11-20T06:23:33;8.70;99.90
27128;DHT22;14660;49.008;8.390;2022-11-20T06:26:04;8.70;99.90
27128;DHT22;14660;49.008;8.390;2022-11-20T06:28:32;8.70;99.90
27128;DHT22;14660;49.008;8.390;2022-11-20T06:30:59;8.80;99.90
27128;DHT22;14660;49.008;8.390;2022-11-20T06:33:27;8.70;99.90
27128;DHT22;14660;49.008;8.390;2022-11-20T06:35:58;8.70;99.90
27128;DHT22;14660;49.008;8.390;2022-11-20T06:38:27;8.70;99.90
27128;DHT22;14660;49.008;8.390;2022-11-20T06:40:54;8.70;99.90
27128;DHT22;14660;49.008;8.390;2022-11-20T06:43:22;8.70;99.90
27128;DHT22;14660;49.008;8.390;2022-11-20T06:45:56;8.70;99.90
27128;DHT22;14660;49.008;8.390;2022-11-20T06:48:25;8.80;99.90
27128;DHT22;14660;49.008;8.390;2022-11-20T06:50:52;8.70;99.90
27128;DHT22;14660;49.008;8.390;2022-11-20T06:53:19;8.80;99.90
27128;DHT22;14660;49.008;8.390;2022-11-20T06:55:47;8.80;99.90
27128;DHT22;14660;49.008;8.390;2022-11-20T06:58:19;8.80;99.90
27128;DHT22;14660;49.008;8.390;2022-11-20T07:00:46;8.80;99.90
27128;DHT22;14660;49.008;8.390;2022-11-20T07:03:13;8.80;99.90
27128;DHT22;14660;49.008;8.390;2022-11-20T07:05:40;8.70;99.90
27128;DHT22;14660;49.008;8.390;2022-11-20T07:08:08;8.70;99.90
27128;DHT22;14660;49.008;8.390;2022-11-20T07:10:34;8.80;99.90
27128;DHT22;14660;49.008;8.390;2022-11-20T07:13:02;8.80;99.90
27128;DHT22;14660;49.008;8.390;2022-11-20T07:15:28;8.80;99.90
27128;DHT22;14660;49.008;8.390;2022-11-20T07:17:58;8.80;99.90
27128;DHT22;14660;49.008;8.390;2022-11-20T07:20:26;8.80;99.90
27128;DHT22;14660;49.008;8.390;2022-11-20T07:23:00;8.80;99.90
27128;DHT22;14660;49.008;8.390;2022-11-20T07:25:27;8.80;99.90
27128;DHT22;14660;49.008;8.390;2022-11-20T07:28:01;8.90;99.90
27128;DHT22;14660;49.008;8.390;2022-11-20T07:30:31;8.80;99.90
27128;DHT22;14660;49.008;8.390;2022-11-20T07:33:03;8.90;99.90
27128;DHT22;14660;49.008;8.390;2022-11-20T07:35:30;8.90;99.90
27128;DHT22;14660;49.008;8.390;2022-11-20T07:38:06;8.80;99.90
27128;DHT22;14660;49.008;8.390;2022-11-20T07:40:34;8.80;99.90
27128;DHT22;14660;49.008;8.390;2022-11-20T07:43:01;8.90;99.90
27128;DHT22;14660;49.008;8.390;2022-11-20T07:45:28;8.90;99.90
27128;DHT22;14660;49.008;8.390;2022-11-20T07:47:55;8.90;99.90
27128;DHT22;14660;49.008;8.390;2022-11-20T07:50:21;8.90;99.90
27128;DHT22;14660;49.008;8.390;2022-11-20T07:52:49;8.90;99.90
27128;DHT22;14660;49.008;8.390;2022-11-20T07:55:17;8.90;99.90
27128;DHT22;14660;49.008;8.390;2022-11-20T07:57:44;8.80;99.90
27128;DHT22;14660;49.008;8.390;2022-11-20T08:00:14;8.80;99.90
27128;DHT22;14660;49.008;8.390;2022-11-20T08:02:42;8.80;99.90
27128;DHT22;14660;49.008;8.390;2022-11-20T08:05:09;8.80;99.90
27128;DHT22;14660;49.008;8.390;2022-11-20T08:07:43;8.70;99.90
27128;DHT22;14660;49.008;8.390;2022-11-20T08:10:13;8.70;99.90
27128;DHT22;14660;49.008;8.390;2022-11-20T08:12:48;8.80;99.90
27128;DHT22;14660;49.008;8.390;2022-11-20T08:15:35;8.70;99.90
27128;DHT22;14660;49.008;8.390;2022-11-20T08:18:05;8.80;99.90
27128;DHT22;14660;49.008;8.390;2022-11-20T08:20:32;8.80;99.90
27128;DHT22;14660;49.008;8.390;2022-11-20T08:23:04;8.90;99.90
27128;DHT22;14660;49.008;8.390;2022-11-20T08:25:38;8.90;99.90
27128;DHT22;14660;49.008;8.390;2022-11-20T08:28:08;8.90;99.90
27128;DHT22;14660;49.008;8.390;2022-11-20T08:30:36;8.90;99.90
27128;DHT22;14660;49.008;8.390;2022-11-20T08:33:06;8.90;99.90
27128;DHT22;14660;49.008;8.390;2022-11-20T08:35:35;9.00;99.90
27128;DHT22;14660;49.008;8.390;2022-11-20T08:38:06;8.90;99.90
27128;DHT22;14660;49.008;8.390;2022-11-20T08:40:33;8.90;99.90
27128;DHT22;14660;49.008;8.390;2022-11-20T08:42:59;8.90;99.90
27128;DHT22;14660;49.008;8.390;2022-11-20T08:45:25;9.00;99.90
27128;DHT22;14660;49.008;8.390;2022-11-20T08:47:59;9.00;99.90
27128;DHT22;14660;49.008;8.390;2022-11-20T08:50:27;9.00;99.90
27128;DHT22;14660;49.008;8.390;2022-11-20T08:52:52;9.00;99.90
27128;DHT22;14660;49.008;8.390;2022-11-20T08:55:19;9.00;99.90
27128;DHT22;14660;49.008;8.390;2022-11-20T08:57:46;9.00;99.90
27128;DHT22;14660;49.008;8.390;2022-11-20T09:00:12;9.10;99.90
27128;DHT22;14660;49.008;8.390;2022-11-20T09:02:39;9.10;99.90
27128;DHT22;14660;49.008;8.390;2022-11-20T09:05:06;9.20;99.90
27128;DHT22;14660;49.008;8.390;2022-11-20T09:07:33;9.10;99.90
27128;DHT22;14660;49.008;8.390;2022-11-20T09:10:00;9.10;99.90
27128;DHT22;14660;49.008;8.390;2022-11-20T09:12:27;9.10;99.90
27128;DHT22;14660;49.008;8.390;2022-11-20T09:14:54;9.00;99.90
27128;DHT22;14660;49.008;8.390;2022-11-20T09:17:21;9.00;99.90
27128;DHT22;14660;49.008;8.390;2022-11-20T09:19:49;9.00;99.90
27128;DHT22;14660;49.008;8.390;2022-11-20T09:22:16;9.10;99.90
27128;DHT22;14660;49.008;8.390;2022-11-20T09:24:43;9.10;99.90
27128;DHT22;14660;49.008;8.390;2022-11-20T09:27:10;9.20;99.90
27128;DHT22;14660;49.008;8.390;2022-11-20T09:29:36;9.20;99.90
27128;DHT22;14660;49.008;8.390;2022-11-20T09:32:04;9.20;99.90
27128;DHT22;14660;49.008;8.390;2022-11-20T09:34:31;9.20;99.90
27128;DHT22;14660;49.008;8.390;2022-11-20T09:36:59;9.30;99.90
27128;DHT22;14660;49.008;8.390;2022-11-20T09:39:27;9.30;99.90
27128;DHT22;14660;49.008;8.390;2022-11-20T09:51:25;9.20;99.90
27128;DHT22;14660;49.008;8.390;2022-11-20T09:57:19;9.30;99.90
27128;DHT22;14660;49.008;8.390;2022-11-20T09:59:54;9.10;99.90
27128;DHT22;14660;49.008;8.390;2022-11-20T10:05:47;9.20;99.90
27128;DHT22;14660;49.008;8.390;2022-11-20T10:08:22;9.20;99.90
27128;DHT22;14660;49.008;8.390;2022-11-20T10:31:46;9.40;99.90
27128;DHT22;14660;49.008;8.390;2022-11-20T10:34:57;9.40;99.90
27128;DHT22;14660;49.008;8.390;2022-11-20T10:37:24;9.50;99.90
27128;DHT22;14660;49.008;8.390;2022-11-20T10:43:33;9.50;99.90
27128;DHT22;14660;49.008;8.390;2022-11-20T10:46:13;9.60;99.90
27128;DHT22;14660;49.008;8.390;2022-11-20T10:48:44;9.60;99.90
27128;DHT22;14660;49.008;8.390;2022-11-20T11:00:22;9.90;99.90
27128;DHT22;14660;49.008;8.390;2022-11-20T11:05:56;10.00;99.90
27128;DHT22;14660;49.008;8.390;2022-11-20T11:08:32;9.90;99.90
27128;DHT22;14660;49.008;8.390;2022-11-20T11:13:52;10.00;99.90
27128;DHT22;14660;49.008;8.390;2022-11-20T11:16:59;10.10;99.90
27128;DHT22;14660;49.008;8.390;2022-11-20T11:19:25;10.10;99.90
27128;DHT22;14660;49.008;8.390;2022-11-20T11:21:56;10.30;99.90
27128;DHT22;14660;49.008;8.390;2022-11-20T11:24:43;10.50;99.90
27128;DHT22;14660;49.008;8.390;2022-11-20T11:27:17;10.40;99.90
27128;DHT22;14660;49.008;8.390;2022-11-20T11:29:45;10.50;99.90
27128;DHT22;14660;49.008;8.390;2022-11-20T11:32:31;10.60;99.90
27128;DHT22;14660;49.008;8.390;2022-11-20T11:35:05;10.70;99.90
27128;DHT22;14660;49.008;8.390;2022-11-20T11:37:37;10.80;99.90
27128;DHT22;14660;49.008;8.390;2022-11-20T11:40:06;10.90;99.90
27128;DHT22;14660;49.008;8.390;2022-11-20T11:42:50;11.00;99.90
27128;DHT22;14660;49.008;8.390;2022-11-20T11:45:23;11.00;99.90
27128;DHT22;14660;49.008;8.390;2022-11-20T11:47:51;11.00;99.90
27128;DHT22;14660;49.008;8.390;2022-11-20T11:50:24;10.90;99.90
27128;DHT22;14660;49.008;8.390;2022-11-20T11:56:13;10.90;99.90
27128;DHT22;14660;49.008;8.390;2022-11-20T11:59:00;10.80;99.90
27128;DHT22;14660;49.008;8.390;2022-11-20T12:01:47;10.70;99.90
27128;DHT22;14660;49.008;8.390;2022-11-20T12:07:41;10.40;99.90
27128;DHT22;14660;49.008;8.390;2022-11-20T12:13:52;10.40;99.90
27128;DHT22;14660;49.008;8.390;2022-11-20T12:16:20;10.50;99.90
27128;DHT22;14660;49.008;8.390;2022-11-20T12:18:50;10.50;99.90
27128;DHT22;14660;49.008;8.390;2022-11-20T12:21:42;10.60;99.90
27128;DHT22;14660;49.008;8.390;2022-11-20T12:24:39;10.70;99.90
27128;DHT22;14660;49.008;8.390;2022-11-20T12:30:19;11.00;99.90
27128;DHT22;14660;49.008;8.390;2022-11-20T12:45:32;10.80;99.90
27128;DHT22;14660;49.008;8.390;2022-11-20T13:00:23;10.70;99.90
27128;DHT22;14660;49.008;8.390;2022-11-20T13:06:18;10.70;99.90
27128;DHT22;14660;49.008;8.390;2022-11-20T13:08:53;10.60;99.90
27128;DHT22;14660;49.008;8.390;2022-11-20T13:20:25;10.60;99.90
27128;DHT22;14660;49.008;8.390;2022-11-20T13:22:54;10.60;99.90
27128;DHT22;14660;49.008;8.390;2022-11-20T13:25:40;10.60;99.90
27128;DHT22;14660;49.008;8.390;2022-11-20T13:28:29;10.70;99.90
27128;DHT22;14660;49.008;8.390;2022-11-20T13:30:57;10.70;99.90
27128;DHT22;14660;49.008;8.390;2022-11-20T13:33:43;10.70;99.90
27128;DHT22;14660;49.008;8.390;2022-11-20T13:36:28;10.80;99.90
27128;DHT22;14660;49.008;8.390;2022-11-20T13:39:03;10.80;99.90
27128;DHT22;14660;49.008;8.390;2022-11-20T13:41:53;10.70;99.90
27128;DHT22;14660;49.008;8.390;2022-11-20T13:44:39;10.80;99.90
27128;DHT22;14660;49.008;8.390;2022-11-20T13:47:26;10.70;99.90
27128;DHT22;14660;49.008;8.390;2022-11-20T13:49:57;10.80;99.90
27128;DHT22;14660;49.008;8.390;2022-11-20T14:02:02;10.70;99.90
27128;DHT22;14660;49.008;8.390;2022-11-20T14:04:38;10.60;99.90
27128;DHT22;14660;49.008;8.390;2022-11-20T14:07:09;10.60;99.90
27128;DHT22;14660;49.008;8.390;2022-11-20T14:09:36;10.50;99.90
27128;DHT22;14660;49.008;8.390;2022-11-20T14:12:03;10.50;99.90
27128;DHT22;14660;49.008;8.390;2022-11-20T14:14:34;10.40;99.90
27128;DHT22;14660;49.008;8.390;2022-11-20T14:17:22;10.40;99.90
27128;DHT22;14660;49.008;8.390;2022-11-20T14:19:54;10.30;99.90
27128;DHT22;14660;49.008;8.390;2022-11-20T14:22:26;10.30;99.90
27128;DHT22;14660;49.008;8.390;2022-11-20T14:25:25;10.30;99.90
27128;DHT22;14660;49.008;8.390;2022-11-20T14:27:57;10.30;99.90
27128;DHT22;14660;49.008;8.390;2022-11-20T14:33:15;10.30;99.90
27128;DHT22;14660;49.008;8.390;2022-11-20T14:35:50;10.30;99.90
27128;DHT22;14660;49.008;8.390;2022-11-20T14:38:27;10.20;99.90
27128;DHT22;14660;49.008;8.390;2022-11-20T14:41:06;10.10;99.90
27128;DHT22;14660;49.008;8.390;2022-11-20T14:43:33;10.10;99.90
27128;DHT22;14660;49.008;8.390;2022-11-20T14:46:21;10.20;99.90
27128;DHT22;14660;49.008;8.390;2022-11-20T14:49:01;10.20;99.90
27128;DHT22;14660;49.008;8.390;2022-11-20T14:51:46;10.20;99.90
27128;DHT22;14660;49.008;8.390;2022-11-20T14:54:20;10.20;99.90
27128;DHT22;14660;49.008;8.390;2022-11-20T14:57:21;10.10;99.90
27128;DHT22;14660;49.008;8.390;2022-11-20T14:59:49;10.10;99.90
27128;DHT22;14660;49.008;8.390;2022-11-20T15:02:17;10.10;99.90
27128;DHT22;14660;49.008;8.390;2022-11-20T15:05:07;10.10;99.90
27128;DHT22;14660;49.008;8.390;2022-11-20T15:07:40;10.20;99.90
27128;DHT22;14660;49.008;8.390;2022-11-20T15:13:11;10.10;99.90
27128;DHT22;14660;49.008;8.390;2022-11-20T15:15:58;10.10;99.90
27128;DHT22;14660;49.008;8.390;2022-11-20T15:18:45;10.00;99.90
27128;DHT22;14660;49.008;8.390;2022-11-20T15:21:15;10.00;99.90
27128;DHT22;14660;49.008;8.390;2022-11-20T15:23:43;10.00;99.90
27128;DHT22;14660;49.008;8.390;2022-11-20T15:26:12;9.90;99.90
27128;DHT22;14660;49.008;8.390;2022-11-20T15:28:47;9.90;99.90
27128;DHT22;14660;49.008;8.390;2022-11-20T15:31:20;9.90;99.90
27128;DHT22;14660;49.008;8.390;2022-11-20T15:33:48;9.90;99.90
27128;DHT22;14660;49.008;8.390;2022-11-20T15:36:17;9.80;99.90
27128;DHT22;14660;49.008;8.390;2022-11-20T15:38:44;9.80;99.90
27128;DHT22;14660;49.008;8.390;2022-11-20T15:41:12;9.80;99.90
27128;DHT22;14660;49.008;8.390;2022-11-20T15:43:39;9.90;99.90
27128;DHT22;14660;49.008;8.390;2022-11-20T15:46:10;9.90;99.90
27128;DHT22;14660;49.008;8.390;2022-11-20T15:48:57;9.80;99.90
27128;DHT22;14660;49.008;8.390;2022-11-20T15:54:31;9.80;99.90
27128;DHT22;14660;49.008;8.390;2022-11-20T15:56:57;9.80;99.90
27128;DHT22;14660;49.008;8.390;2022-11-20T15:59:25;9.80;99.90
27128;DHT22;14660;49.008;8.390;2022-11-20T16:01:52;9.80;99.90
27128;DHT22;14660;49.008;8.390;2022-11-20T16:04:19;9.80;99.90
27128;DHT22;14660;49.008;8.390;2022-11-20T16:06:46;9.80;99.90
27128;DHT22;14660;49.008;8.390;2022-11-20T16:09:13;9.80;99.90
27128;DHT22;14660;49.008;8.390;2022-11-20T16:11:39;9.80;99.90
27128;DHT22;14660;49.008;8.390;2022-11-20T16:14:06;9.80;99.90
27128;DHT22;14660;49.008;8.390;2022-11-20T16:16:51;9.80;99.90
27128;DHT22;14660;49.008;8.390;2022-11-20T16:19:18;9.80;99.90
27128;DHT22;14660;49.008;8.390;2022-11-20T16:21:45;9.90;99.90
27128;DHT22;14660;49.008;8.390;2022-11-20T16:24:13;9.80;99.90
27128;DHT22;14660;49.008;8.390;2022-11-20T16:26:42;9.80;99.90
27128;DHT22;14660;49.008;8.390;2022-11-20T16:29:09;9.80;99.90
27128;DHT22;14660;49.008;8.390;2022-11-20T16:31:36;9.80;99.90
27128;DHT22;14660;49.008;8.390;2022-11-20T16:34:05;9.80;99.90
27128;DHT22;14660;49.008;8.390;2022-11-20T16:36:33;9.70;99.90
27128;DHT22;14660;49.008;8.390;2022-11-20T16:39:02;9.70;99.90
27128;DHT22;14660;49.008;8.390;2022-11-20T16:41:40;9.80;99.90
27128;DHT22;14660;49.008;8.390;2022-11-20T16:44:14;9.80;99.90
27128;DHT22;14660;49.008;8.390;2022-11-20T16:46:42;9.80;99.90
27128;DHT22;14660;49.008;8.390;2022-11-20T16:49:12;9.70;99.90
27128;DHT22;14660;49.008;8.390;2022-11-20T16:51:39;9.70;99.90
27128;DHT22;14660;49.008;8.390;2022-11-20T16:54:09;9.70;99.90
27128;DHT22;14660;49.008;8.390;2022-11-20T16:56:38;9.70;99.90
27128;DHT22;14660;49.008;8.390;2022-11-20T16:59:08;9.80;99.90
27128;DHT22;14660;49.008;8.390;2022-11-20T17:01:34;9.80;99.90
27128;DHT22;14660;49.008;8.390;2022-11-20T17:04:05;9.80;99.90
27128;DHT22;14660;49.008;8.390;2022-11-20T17:06:34;9.80;99.90
27128;DHT22;14660;49.008;8.390;2022-11-20T17:09:02;9.70;99.90
27128;DHT22;14660;49.008;8.390;2022-11-20T17:11:29;9.70;99.90
27128;DHT22;14660;49.008;8.390;2022-11-20T17:13:57;9.70;99.90
27128;DHT22;14660;49.008;8.390;2022-11-20T17:16:42;9.70;99.90
27128;DHT22;14660;49.008;8.390;2022-11-20T17:19:08;9.70;99.90
27128;DHT22;14660;49.008;8.390;2022-11-20T17:21:37;9.80;99.90
27128;DHT22;14660;49.008;8.390;2022-11-20T17:24:12;9.70;99.90
27128;DHT22;14660;49.008;8.390;2022-11-20T17:26:42;9.60;99.90
27128;DHT22;14660;49.008;8.390;2022-11-20T17:29:14;9.60;99.90
27128;DHT22;14660;49.008;8.390;2022-11-20T17:31:42;9.60;99.90
27128;DHT22;14660;49.008;8.390;2022-11-20T17:34:13;9.60;99.90
27128;DHT22;14660;49.008;8.390;2022-11-20T17:36:43;9.60;99.90
27128;DHT22;14660;49.008;8.390;2022-11-20T17:39:11;9.50;99.90
27128;DHT22;14660;49.008;8.390;2022-11-20T17:41:39;9.60;99.90
27128;DHT22;14660;49.008;8.390;2022-11-20T17:44:08;9.60;99.90
27128;DHT22;14660;49.008;8.390;2022-11-20T17:46:36;9.50;99.90
27128;DHT22;14660;49.008;8.390;2022-11-20T17:49:05;9.50;99.90
27128;DHT22;14660;49.008;8.390;2022-11-20T17:51:36;9.50;99.90
27128;DHT22;14660;49.008;8.390;2022-11-20T17:54:06;9.40;99.90
27128;DHT22;14660;49.008;8.390;2022-11-20T17:56:34;9.50;99.90
27128;DHT22;14660;49.008;8.390;2022-11-20T17:59:20;9.50;99.90
27128;DHT22;14660;49.008;8.390;2022-11-20T18:01:47;9.50;99.90
27128;DHT22;14660;49.008;8.390;2022-11-20T18:04:18;9.40;99.90
27128;DHT22;14660;49.008;8.390;2022-11-20T18:06:45;9.40;99.90
27128;DHT22;14660;49.008;8.390;2022-11-20T18:09:12;9.40;99.90
27128;DHT22;14660;49.008;8.390;2022-11-20T18:11:43;9.40;99.90
27128;DHT22;14660;49.008;8.390;2022-11-20T18:14:16;9.40;99.90
27128;DHT22;14660;49.008;8.390;2022-11-20T18:17:14;9.40;99.90
27128;DHT22;14660;49.008;8.390;2022-11-20T18:19:43;9.30;99.90